sensor_id;sensor_type;location;lat;lon;timestamp;temperature;humidity
67275;DHT22;55463;52.324;5.122;2024-01-30T00:01:55;7.62;99.76
67275;DHT22;55463;52.324;5.122;2024-01-30T00:04:20;7.61;99.86
67275;DHT22;55463;52.324;5.122;2024-01-30T00:06:46;7.59;99.87
67275;DHT22;55463;52.324;5.122;2024-01-30T00:09:11;7.58;99.66
67275;DHT22;55463;52.324;5.122;2024-01-30T00:11:37;7.52;99.82
67275;DHT22;55463;52.324;5.122;2024-01-30T00:14:03;7.56;99.99
67275;DHT22;55463;52.324;5.122;2024-01-30T00:16:29;7.56;99.99
67275;DHT22;55463;52.324;5.122;2024-01-30T00:18:54;7.59;99.99
67275;DHT22;55463;52.324;5.122;2024-01-30T00:21:20;7.63;99.99
67275;DHT22;55463;52.324;5.122;2024-01-30T00:23:46;7.63;99.91
67275;DHT22;55463;52.324;5.122;2024-01-30T00:26:11;7.65;99.81
67275;DHT22;55463;52.324;5.122;2024-01-30T00:28:38;7.67;99.99
67275;DHT22;55463;52.324;5.122;2024-01-30T00:31:03;7.66;99.96
67275;DHT22;55463;52.324;5.122;2024-01-30T00:33:29;7.66;99.84
67275;DHT22;55463;52.324;5.122;2024-01-30T00:35:55;7.70;99.86
67275;DHT22;55463;52.324;5.122;2024-01-30T00:38:20;7.70;99.98
67275;DHT22;55463;52.324;5.122;2024-01-30T00:40:46;7.69;99.92
67275;DHT22;55463;52.324;5.122;2024-01-30T00:43:11;7.72;99.99
67275;DHT22;55463;52.324;5.122;2024-01-30T00:45:36;7.72;99.99
67275;DHT22;55463;52.324;5.122;2024-01-30T00:48:02;7.75;99.94
67275;DHT22;55463;52.324;5.122;2024-01-30T00:50:27;7.83;99.99
67275;DHT22;55463;52.324;5.122;2024-01-30T00:52:53;7.83;99.95
67275;DHT22;55463;52.324;5.122;2024-01-30T00:55:18;7.86;99.84
67275;DHT22;55463;52.324;5.122;2024-01-30T00:57:44;7.87;99.78
67275;DHT22;55463;52.324;5.122;2024-01-30T01:00:09;7.89;99.80
67275;DHT22;55463;52.324;5.122;2024-01-30T01:02:35;7.93;99.59
67275;DHT22;55463;52.324;5.122;2024-01-30T01:05:01;7.97;99.84
67275;DHT22;55463;52.324;5.122;2024-01-30T01:07:27;7.98;99.71
67275;DHT22;55463;52.324;5.122;2024-01-30T01:09:52;8.05;99.69
67275;DHT22;55463;52.324;5.122;2024-01-30T01:12:17;8.05;99.63
67275;DHT22;55463;52.324;5.122;2024-01-30T01:14:43;8.11;99.60
67275;DHT22;55463;52.324;5.122;2024-01-30T01:17:08;8.14;99.49
67275;DHT22;55463;52.324;5.122;2024-01-30T01:19:34;8.17;99.46
67275;DHT22;55463;52.324;5.122;2024-01-30T01:21:59;8.18;99.39
67275;DHT22;55463;52.324;5.122;2024-01-30T01:24:24;8.21;99.36
67275;DHT22;55463;52.324;5.122;2024-01-30T01:26:50;8.20;99.29
67275;DHT22;55463;52.324;5.122;2024-01-30T01:29:15;8.20;99.28
67275;DHT22;55463;52.324;5.122;2024-01-30T01:31:41;8.18;99.30
67275;DHT22;55463;52.324;5.122;2024-01-30T01:34:10;8.17;99.27
67275;DHT22;55463;52.324;5.122;2024-01-30T01:36:36;8.14;99.29
67275;DHT22;55463;52.324;5.122;2024-01-30T01:39:01;8.12;99.29
67275;DHT22;55463;52.324;5.122;2024-01-30T01:41:31;8.15;99.26
67275;DHT22;55463;52.324;5.122;2024-01-30T01:43:57;8.18;99.37
67275;DHT22;55463;52.324;5.122;2024-01-30T01:46:23;8.15;99.33
67275;DHT22;55463;52.324;5.122;2024-01-30T01:48:49;8.12;99.27
67275;DHT22;55463;52.324;5.122;2024-01-30T01:51:15;8.14;99.24
67275;DHT22;55463;52.324;5.122;2024-01-30T01:53:40;8.10;99.20
67275;DHT22;55463;52.324;5.122;2024-01-30T01:56:06;8.05;99.26
67275;DHT22;55463;52.324;5.122;2024-01-30T01:58:32;8.07;99.21
67275;DHT22;55463;52.324;5.122;2024-01-30T02:00:58;8.07;99.19
67275;DHT22;55463;52.324;5.122;2024-01-30T02:03:24;8.05;99.14
67275;DHT22;55463;52.324;5.122;2024-01-30T02:05:52;8.00;99.15
67275;DHT22;55463;52.324;5.122;2024-01-30T02:08:18;8.00;99.22
67275;DHT22;55463;52.324;5.122;2024-01-30T02:10:44;8.00;99.34
67275;DHT22;55463;52.324;5.122;2024-01-30T02:13:09;8.01;99.34
67275;DHT22;55463;52.324;5.122;2024-01-30T02:15:35;8.05;99.29
67275;DHT22;55463;52.324;5.122;2024-01-30T02:18:00;8.10;99.25
67275;DHT22;55463;52.324;5.122;2024-01-30T02:20:28;8.15;99.23
67275;DHT22;55463;52.324;5.122;2024-01-30T02:22:55;8.15;99.15
67275;DHT22;55463;52.324;5.122;2024-01-30T02:25:33;8.18;99.16
67275;DHT22;55463;52.324;5.122;2024-01-30T02:27:59;8.20;99.08
67275;DHT22;55463;52.324;5.122;2024-01-30T02:30:24;8.22;99.01
67275;DHT22;55463;52.324;5.122;2024-01-30T02:32:49;8.22;99.05
67275;DHT22;55463;52.324;5.122;2024-01-30T02:35:15;8.20;99.07
67275;DHT22;55463;52.324;5.122;2024-01-30T02:37:40;8.20;99.04
67275;DHT22;55463;52.324;5.122;2024-01-30T02:40:06;8.17;99.06
67275;DHT22;55463;52.324;5.122;2024-01-30T02:42:32;8.20;99.02
67275;DHT22;55463;52.324;5.122;2024-01-30T02:44:57;8.21;99.01
67275;DHT22;55463;52.324;5.122;2024-01-30T02:47:22;8.22;98.99
67275;DHT22;55463;52.324;5.122;2024-01-30T02:49:48;8.24;98.99
67275;DHT22;55463;52.324;5.122;2024-01-30T02:52:13;8.25;98.94
67275;DHT22;55463;52.324;5.122;2024-01-30T02:54:38;8.24;98.90
67275;DHT22;55463;52.324;5.122;2024-01-30T02:57:04;8.21;98.99
67275;DHT22;55463;52.324;5.122;2024-01-30T02:59:29;8.18;98.96
67275;DHT22;55463;52.324;5.122;2024-01-30T03:01:55;8.20;98.98
67275;DHT22;55463;52.324;5.122;2024-01-30T03:04:20;8.18;99.06
67275;DHT22;55463;52.324;5.122;2024-01-30T03:06:45;8.18;99.00
67275;DHT22;55463;52.324;5.122;2024-01-30T03:09:12;8.15;98.93
67275;DHT22;55463;52.324;5.122;2024-01-30T03:11:37;8.14;99.03
67275;DHT22;55463;52.324;5.122;2024-01-30T03:14:03;8.11;98.92
67275;DHT22;55463;52.324;5.122;2024-01-30T03:16:29;8.10;98.98
67275;DHT22;55463;52.324;5.122;2024-01-30T03:18:54;8.05;98.94
67275;DHT22;55463;52.324;5.122;2024-01-30T03:21:20;8.05;99.02
67275;DHT22;55463;52.324;5.122;2024-01-30T03:23:45;8.05;99.13
67275;DHT22;55463;52.324;5.122;2024-01-30T03:26:11;8.03;99.04
67275;DHT22;55463;52.324;5.122;2024-01-30T03:28:37;8.03;99.11
67275;DHT22;55463;52.324;5.122;2024-01-30T03:31:03;8.04;99.14
67275;DHT22;55463;52.324;5.122;2024-01-30T03:33:28;8.07;99.23
67275;DHT22;55463;52.324;5.122;2024-01-30T03:35:54;8.08;99.10
67275;DHT22;55463;52.324;5.122;2024-01-30T03:38:19;8.10;99.07
67275;DHT22;55463;52.324;5.122;2024-01-30T03:40:44;8.11;99.03
67275;DHT22;55463;52.324;5.122;2024-01-30T03:43:10;8.11;99.04
67275;DHT22;55463;52.324;5.122;2024-01-30T03:45:35;8.11;98.99
67275;DHT22;55463;52.324;5.122;2024-01-30T03:48:00;8.08;99.04
67275;DHT22;55463;52.324;5.122;2024-01-30T03:50:26;8.07;99.09
67275;DHT22;55463;52.324;5.122;2024-01-30T03:52:51;8.07;99.07
67275;DHT22;55463;52.324;5.122;2024-01-30T03:55:16;8.10;99.07
67275;DHT22;55463;52.324;5.122;2024-01-30T03:57:42;8.08;99.04
67275;DHT22;55463;52.324;5.122;2024-01-30T04:00:08;8.08;99.08
67275;DHT22;55463;52.324;5.122;2024-01-30T04:02:33;8.08;99.10
67275;DHT22;55463;52.324;5.122;2024-01-30T04:04:59;8.10;99.12
67275;DHT22;55463;52.324;5.122;2024-01-30T04:07:24;8.10;99.15
67275;DHT22;55463;52.324;5.122;2024-01-30T04:09:49;8.10;99.11
67275;DHT22;55463;52.324;5.122;2024-01-30T04:12:15;8.12;99.11
67275;DHT22;55463;52.324;5.122;2024-01-30T04:14:40;8.15;99.09
67275;DHT22;55463;52.324;5.122;2024-01-30T04:17:06;8.15;99.02
67275;DHT22;55463;52.324;5.122;2024-01-30T04:19:31;8.12;99.03
67275;DHT22;55463;52.324;5.122;2024-01-30T04:21:56;8.18;98.94
67275;DHT22;55463;52.324;5.122;2024-01-30T04:24:22;8.17;98.93
67275;DHT22;55463;52.324;5.122;2024-01-30T04:26:47;8.17;98.93
67275;DHT22;55463;52.324;5.122;2024-01-30T04:29:13;8.15;98.96
67275;DHT22;55463;52.324;5.122;2024-01-30T04:31:38;8.14;98.93
67275;DHT22;55463;52.324;5.122;2024-01-30T04:34:03;8.15;99.01
67275;DHT22;55463;52.324;5.122;2024-01-30T04:36:29;8.15;98.98
67275;DHT22;55463;52.324;5.122;2024-01-30T04:38:54;8.15;99.00
67275;DHT22;55463;52.324;5.122;2024-01-30T04:41:19;8.15;98.98
67275;DHT22;55463;52.324;5.122;2024-01-30T04:43:45;8.12;98.97
67275;DHT22;55463;52.324;5.122;2024-01-30T04:46:10;8.10;98.98
67275;DHT22;55463;52.324;5.122;2024-01-30T04:48:36;8.10;98.94
67275;DHT22;55463;52.324;5.122;2024-01-30T04:51:01;8.10;99.00
67275;DHT22;55463;52.324;5.122;2024-01-30T04:53:32;8.10;99.03
67275;DHT22;55463;52.324;5.122;2024-01-30T04:55:57;8.08;98.99
67275;DHT22;55463;52.324;5.122;2024-01-30T04:58:23;8.04;98.99
67275;DHT22;55463;52.324;5.122;2024-01-30T05:00:48;8.04;99.08
67275;DHT22;55463;52.324;5.122;2024-01-30T05:03:18;8.03;99.14
67275;DHT22;55463;52.324;5.122;2024-01-30T05:05:43;8.04;99.15
67275;DHT22;55463;52.324;5.122;2024-01-30T05:08:09;8.03;99.18
67275;DHT22;55463;52.324;5.122;2024-01-30T05:10:34;8.03;99.20
67275;DHT22;55463;52.324;5.122;2024-01-30T05:12:59;8.04;99.25
67275;DHT22;55463;52.324;5.122;2024-01-30T05:15:25;8.04;99.29
67275;DHT22;55463;52.324;5.122;2024-01-30T05:17:50;8.10;99.23
67275;DHT22;55463;52.324;5.122;2024-01-30T05:20:16;8.11;99.30
67275;DHT22;55463;52.324;5.122;2024-01-30T05:22:42;8.14;99.25
67275;DHT22;55463;52.324;5.122;2024-01-30T05:25:10;8.15;99.28
67275;DHT22;55463;52.324;5.122;2024-01-30T05:27:36;8.18;99.29
67275;DHT22;55463;52.324;5.122;2024-01-30T05:30:01;8.22;99.27
67275;DHT22;55463;52.324;5.122;2024-01-30T05:32:27;8.22;99.22
67275;DHT22;55463;52.324;5.122;2024-01-30T05:34:52;8.24;99.23
67275;DHT22;55463;52.324;5.122;2024-01-30T05:37:17;8.27;99.18
67275;DHT22;55463;52.324;5.122;2024-01-30T05:39:43;8.28;99.20
67275;DHT22;55463;52.324;5.122;2024-01-30T05:42:08;8.27;99.21
67275;DHT22;55463;52.324;5.122;2024-01-30T05:44:35;8.29;99.19
67275;DHT22;55463;52.324;5.122;2024-01-30T05:47:00;8.29;99.12
67275;DHT22;55463;52.324;5.122;2024-01-30T05:49:26;8.31;99.16
67275;DHT22;55463;52.324;5.122;2024-01-30T05:51:51;8.32;99.14
67275;DHT22;55463;52.324;5.122;2024-01-30T05:54:16;8.29;99.16
67275;DHT22;55463;52.324;5.122;2024-01-30T05:56:42;8.31;99.19
67275;DHT22;55463;52.324;5.122;2024-01-30T05:59:07;8.31;99.19
67275;DHT22;55463;52.324;5.122;2024-01-30T06:01:33;8.31;99.24
67275;DHT22;55463;52.324;5.122;2024-01-30T06:03:59;8.31;99.30
67275;DHT22;55463;52.324;5.122;2024-01-30T06:06:25;8.32;99.28
67275;DHT22;55463;52.324;5.122;2024-01-30T06:08:50;8.29;99.28
67275;DHT22;55463;52.324;5.122;2024-01-30T06:11:16;8.37;99.33
67275;DHT22;55463;52.324;5.122;2024-01-30T06:13:41;8.37;99.27
67275;DHT22;55463;52.324;5.122;2024-01-30T06:16:09;8.39;99.28
67275;DHT22;55463;52.324;5.122;2024-01-30T06:18:36;8.41;99.27
67275;DHT22;55463;52.324;5.122;2024-01-30T06:21:01;8.42;99.28
67275;DHT22;55463;52.324;5.122;2024-01-30T06:23:27;8.46;99.30
67275;DHT22;55463;52.324;5.122;2024-01-30T06:25:52;8.49;99.31
67275;DHT22;55463;52.324;5.122;2024-01-30T06:28:18;8.52;99.33
67275;DHT22;55463;52.324;5.122;2024-01-30T06:30:44;8.52;99.30
67275;DHT22;55463;52.324;5.122;2024-01-30T06:33:12;8.56;99.33
67275;DHT22;55463;52.324;5.122;2024-01-30T06:35:38;8.57;99.32
67275;DHT22;55463;52.324;5.122;2024-01-30T06:38:05;8.60;99.34
67275;DHT22;55463;52.324;5.122;2024-01-30T06:40:31;8.65;99.31
67275;DHT22;55463;52.324;5.122;2024-01-30T06:42:56;8.69;99.33
67275;DHT22;55463;52.324;5.122;2024-01-30T06:45:21;8.79;99.29
67275;DHT22;55463;52.324;5.122;2024-01-30T06:47:47;8.80;99.23
67275;DHT22;55463;52.324;5.122;2024-01-30T06:50:13;8.86;99.20
67275;DHT22;55463;52.324;5.122;2024-01-30T06:52:38;8.86;99.15
67275;DHT22;55463;52.324;5.122;2024-01-30T06:55:04;8.90;99.10
67275;DHT22;55463;52.324;5.122;2024-01-30T06:57:29;8.88;99.08
67275;DHT22;55463;52.324;5.122;2024-01-30T06:59:55;8.93;99.01
67275;DHT22;55463;52.324;5.122;2024-01-30T07:02:21;8.99;98.96
67275;DHT22;55463;52.324;5.122;2024-01-30T07:04:46;9.00;98.95
67275;DHT22;55463;52.324;5.122;2024-01-30T07:07:12;9.01;98.94
67275;DHT22;55463;52.324;5.122;2024-01-30T07:09:38;9.05;98.83
67275;DHT22;55463;52.324;5.122;2024-01-30T07:12:04;9.07;98.88
67275;DHT22;55463;52.324;5.122;2024-01-30T07:14:31;9.07;98.92
67275;DHT22;55463;52.324;5.122;2024-01-30T07:16:56;9.12;98.91
67275;DHT22;55463;52.324;5.122;2024-01-30T07:19:22;9.14;98.90
67275;DHT22;55463;52.324;5.122;2024-01-30T07:21:47;9.17;98.85
67275;DHT22;55463;52.324;5.122;2024-01-30T07:24:14;9.20;98.87
67275;DHT22;55463;52.324;5.122;2024-01-30T07:26:39;9.17;98.91
67275;DHT22;55463;52.324;5.122;2024-01-30T07:29:05;9.22;99.02
67275;DHT22;55463;52.324;5.122;2024-01-30T07:31:30;9.24;99.00
67275;DHT22;55463;52.324;5.122;2024-01-30T07:33:55;9.27;99.09
67275;DHT22;55463;52.324;5.122;2024-01-30T07:36:21;9.29;99.05
67275;DHT22;55463;52.324;5.122;2024-01-30T07:38:46;9.29;99.01
67275;DHT22;55463;52.324;5.122;2024-01-30T07:41:12;9.36;98.92
67275;DHT22;55463;52.324;5.122;2024-01-30T07:43:38;9.35;98.95
67275;DHT22;55463;52.324;5.122;2024-01-30T07:46:04;9.39;98.95
67275;DHT22;55463;52.324;5.122;2024-01-30T07:48:32;9.42;98.93
67275;DHT22;55463;52.324;5.122;2024-01-30T07:50:59;9.46;98.87
67275;DHT22;55463;52.324;5.122;2024-01-30T07:53:24;9.48;98.89
67275;DHT22;55463;52.324;5.122;2024-01-30T07:55:50;9.53;98.86
67275;DHT22;55463;52.324;5.122;2024-01-30T07:58:15;9.55;98.81
67275;DHT22;55463;52.324;5.122;2024-01-30T08:00:41;9.59;98.77
67275;DHT22;55463;52.324;5.122;2024-01-30T08:03:06;9.65;98.74
67275;DHT22;55463;52.324;5.122;2024-01-30T08:05:32;9.69;98.75
67275;DHT22;55463;52.324;5.122;2024-01-30T08:07:58;9.73;98.72
67275;DHT22;55463;52.324;5.122;2024-01-30T08:10:24;9.73;98.76
67275;DHT22;55463;52.324;5.122;2024-01-30T08:12:50;9.80;98.69
67275;DHT22;55463;52.324;5.122;2024-01-30T08:15:15;9.86;98.64
67275;DHT22;55463;52.324;5.122;2024-01-30T08:17:41;9.91;98.64
67275;DHT22;55463;52.324;5.122;2024-01-30T08:20:07;9.94;98.56
67275;DHT22;55463;52.324;5.122;2024-01-30T08:22:33;9.94;98.55
67275;DHT22;55463;52.324;5.122;2024-01-30T08:24:59;9.97;98.58
67275;DHT22;55463;52.324;5.122;2024-01-30T08:27:24;9.97;98.56
67275;DHT22;55463;52.324;5.122;2024-01-30T08:29:50;10.01;98.54
67275;DHT22;55463;52.324;5.122;2024-01-30T08:32:15;10.01;98.46
67275;DHT22;55463;52.324;5.122;2024-01-30T08:34:41;10.01;98.42
67275;DHT22;55463;52.324;5.122;2024-01-30T08:37:07;10.04;98.45
67275;DHT22;55463;52.324;5.122;2024-01-30T08:39:32;10.05;98.48
67275;DHT22;55463;52.324;5.122;2024-01-30T08:41:58;10.08;98.49
67275;DHT22;55463;52.324;5.122;2024-01-30T08:44:23;10.08;98.46
67275;DHT22;55463;52.324;5.122;2024-01-30T08:46:49;10.10;98.51
67275;DHT22;55463;52.324;5.122;2024-01-30T08:49:16;10.12;98.48
67275;DHT22;55463;52.324;5.122;2024-01-30T08:51:41;10.14;98.46
67275;DHT22;55463;52.324;5.122;2024-01-30T08:54:07;10.14;98.49
67275;DHT22;55463;52.324;5.122;2024-01-30T08:56:33;10.17;98.47
67275;DHT22;55463;52.324;5.122;2024-01-30T08:58:58;10.14;98.53
67275;DHT22;55463;52.324;5.122;2024-01-30T09:01:25;10.14;98.52
67275;DHT22;55463;52.324;5.122;2024-01-30T09:03:50;10.15;98.50
67275;DHT22;55463;52.324;5.122;2024-01-30T09:06:16;10.15;98.53
67275;DHT22;55463;52.324;5.122;2024-01-30T09:08:41;10.15;98.55
67275;DHT22;55463;52.324;5.122;2024-01-30T09:11:12;10.15;98.62
67275;DHT22;55463;52.324;5.122;2024-01-30T09:13:38;10.18;98.70
67275;DHT22;55463;52.324;5.122;2024-01-30T09:16:04;10.21;98.71
67275;DHT22;55463;52.324;5.122;2024-01-30T09:18:29;10.22;98.66
67275;DHT22;55463;52.324;5.122;2024-01-30T09:20:55;10.24;98.65
67275;DHT22;55463;52.324;5.122;2024-01-30T09:23:20;10.25;98.67
67275;DHT22;55463;52.324;5.122;2024-01-30T09:25:47;10.31;98.58
67275;DHT22;55463;52.324;5.122;2024-01-30T09:28:12;10.29;98.62
67275;DHT22;55463;52.324;5.122;2024-01-30T09:30:37;10.24;98.64
67275;DHT22;55463;52.324;5.122;2024-01-30T09:33:03;10.27;98.66
67275;DHT22;55463;52.324;5.122;2024-01-30T09:35:28;10.31;98.63
67275;DHT22;55463;52.324;5.122;2024-01-30T09:37:55;10.28;98.71
67275;DHT22;55463;52.324;5.122;2024-01-30T09:40:20;10.27;98.74
67275;DHT22;55463;52.324;5.122;2024-01-30T09:42:50;10.28;98.83
67275;DHT22;55463;52.324;5.122;2024-01-30T09:45:19;10.28;98.74
67275;DHT22;55463;52.324;5.122;2024-01-30T09:47:46;10.31;98.79
67275;DHT22;55463;52.324;5.122;2024-01-30T09:50:13;10.32;98.68
67275;DHT22;55463;52.324;5.122;2024-01-30T09:52:39;10.31;98.79
67275;DHT22;55463;52.324;5.122;2024-01-30T09:55:06;10.36;98.71
67275;DHT22;55463;52.324;5.122;2024-01-30T09:57:32;10.38;98.76
67275;DHT22;55463;52.324;5.122;2024-01-30T09:59:58;10.42;98.74
67275;DHT22;55463;52.324;5.122;2024-01-30T10:02:23;10.46;98.56
67275;DHT22;55463;52.324;5.122;2024-01-30T10:04:49;10.50;98.44
67275;DHT22;55463;52.324;5.122;2024-01-30T10:07:18;10.57;98.10
67275;DHT22;55463;52.324;5.122;2024-01-30T10:09:45;10.63;97.99
67275;DHT22;55463;52.324;5.122;2024-01-30T10:12:11;10.67;97.35
67275;DHT22;55463;52.324;5.122;2024-01-30T10:14:40;10.74;95.95
67275;DHT22;55463;52.324;5.122;2024-01-30T10:17:08;10.79;94.81
67275;DHT22;55463;52.324;5.122;2024-01-30T10:19:33;10.79;95.02
67275;DHT22;55463;52.324;5.122;2024-01-30T10:22:03;10.77;94.95
67275;DHT22;55463;52.324;5.122;2024-01-30T10:24:29;10.74;95.03
67275;DHT22;55463;52.324;5.122;2024-01-30T10:26:55;10.72;95.09
67275;DHT22;55463;52.324;5.122;2024-01-30T10:29:21;10.67;95.43
67275;DHT22;55463;52.324;5.122;2024-01-30T10:32:03;10.62;95.16
67275;DHT22;55463;52.324;5.122;2024-01-30T10:34:29;10.62;95.37
67275;DHT22;55463;52.324;5.122;2024-01-30T10:37:07;10.60;95.06
67275;DHT22;55463;52.324;5.122;2024-01-30T10:39:38;10.60;95.31
67275;DHT22;55463;52.324;5.122;2024-01-30T10:42:05;10.59;95.11
67275;DHT22;55463;52.324;5.122;2024-01-30T10:47:12;10.62;94.56
67275;DHT22;55463;52.324;5.122;2024-01-30T10:49:41;10.62;94.41
67275;DHT22;55463;52.324;5.122;2024-01-30T10:52:08;10.64;94.47
67275;DHT22;55463;52.324;5.122;2024-01-30T10:54:35;10.63;94.39
67275;DHT22;55463;52.324;5.122;2024-01-30T10:57:02;10.62;94.29
67275;DHT22;55463;52.324;5.122;2024-01-30T10:59:29;10.69;94.48
67275;DHT22;55463;52.324;5.122;2024-01-30T11:01:57;10.63;94.18
67275;DHT22;55463;52.324;5.122;2024-01-30T11:04:23;10.59;93.92
67275;DHT22;55463;52.324;5.122;2024-01-30T11:06:50;10.45;93.50
67275;DHT22;55463;52.324;5.122;2024-01-30T11:09:17;10.39;93.92
67275;DHT22;55463;52.324;5.122;2024-01-30T11:11:56;10.31;94.31
67275;DHT22;55463;52.324;5.122;2024-01-30T11:14:29;10.18;94.74
67275;DHT22;55463;52.324;5.122;2024-01-30T11:16:59;10.14;95.47
67275;DHT22;55463;52.324;5.122;2024-01-30T11:19:25;10.04;95.68
67275;DHT22;55463;52.324;5.122;2024-01-30T11:21:53;9.95;95.97
67275;DHT22;55463;52.324;5.122;2024-01-30T11:24:22;9.89;96.07
67275;DHT22;55463;52.324;5.122;2024-01-30T11:26:57;9.79;96.54
67275;DHT22;55463;52.324;5.122;2024-01-30T11:29:30;9.72;96.67
67275;DHT22;55463;52.324;5.122;2024-01-30T11:31:57;9.67;96.82
67275;DHT22;55463;52.324;5.122;2024-01-30T11:34:23;9.74;96.83
67275;DHT22;55463;52.324;5.122;2024-01-30T11:36:56;9.73;96.72
67275;DHT22;55463;52.324;5.122;2024-01-30T11:39:25;9.70;96.55
67275;DHT22;55463;52.324;5.122;2024-01-30T11:41:52;9.69;96.18
67275;DHT22;55463;52.324;5.122;2024-01-30T11:44:19;9.67;96.38
67275;DHT22;55463;52.324;5.122;2024-01-30T11:46:47;9.67;96.69
67275;DHT22;55463;52.324;5.122;2024-01-30T11:49:12;9.65;97.04
67275;DHT22;55463;52.324;5.122;2024-01-30T11:51:38;9.57;97.09
67275;DHT22;55463;52.324;5.122;2024-01-30T11:54:03;9.53;97.38
67275;DHT22;55463;52.324;5.122;2024-01-30T11:56:29;9.42;97.35
67275;DHT22;55463;52.324;5.122;2024-01-30T11:58:54;9.35;97.52
67275;DHT22;55463;52.324;5.122;2024-01-30T12:01:20;9.32;97.31
67275;DHT22;55463;52.324;5.122;2024-01-30T12:03:49;9.21;97.33
67275;DHT22;55463;52.324;5.122;2024-01-30T12:06:16;9.20;97.19
67275;DHT22;55463;52.324;5.122;2024-01-30T12:08:41;9.21;97.26
67275;DHT22;55463;52.324;5.122;2024-01-30T12:11:07;9.27;97.32
67275;DHT22;55463;52.324;5.122;2024-01-30T12:13:33;9.29;97.13
67275;DHT22;55463;52.324;5.122;2024-01-30T12:15:59;9.38;97.05
67275;DHT22;55463;52.324;5.122;2024-01-30T12:18:24;9.46;96.89
67275;DHT22;55463;52.324;5.122;2024-01-30T12:20:57;9.42;96.86
67275;DHT22;55463;52.324;5.122;2024-01-30T12:23:24;9.46;97.07
67275;DHT22;55463;52.324;5.122;2024-01-30T12:25:51;9.40;97.29
67275;DHT22;55463;52.324;5.122;2024-01-30T12:28:17;9.42;97.41
67275;DHT22;55463;52.324;5.122;2024-01-30T12:30:42;9.36;97.70
67275;DHT22;55463;52.324;5.122;2024-01-30T12:33:08;9.34;97.69
67275;DHT22;55463;52.324;5.122;2024-01-30T12:35:35;9.29;98.09
67275;DHT22;55463;52.324;5.122;2024-01-30T12:38:00;9.21;98.24
67275;DHT22;55463;52.324;5.122;2024-01-30T12:40:26;9.11;98.84
67275;DHT22;55463;52.324;5.122;2024-01-30T12:42:52;9.08;98.87
67275;DHT22;55463;52.324;5.122;2024-01-30T12:45:17;9.04;99.12
67275;DHT22;55463;52.324;5.122;2024-01-30T12:47:47;9.00;99.30
67275;DHT22;55463;52.324;5.122;2024-01-30T12:50:13;9.05;99.27
67275;DHT22;55463;52.324;5.122;2024-01-30T12:52:41;9.01;99.59
67275;DHT22;55463;52.324;5.122;2024-01-30T12:55:07;9.00;99.72
67275;DHT22;55463;52.324;5.122;2024-01-30T12:57:32;9.00;99.57
67275;DHT22;55463;52.324;5.122;2024-01-30T12:59:57;9.01;99.69
67275;DHT22;55463;52.324;5.122;2024-01-30T13:02:23;8.97;99.47
67275;DHT22;55463;52.324;5.122;2024-01-30T13:04:49;8.94;99.40
67275;DHT22;55463;52.324;5.122;2024-01-30T13:07:14;8.96;99.61
67275;DHT22;55463;52.324;5.122;2024-01-30T13:09:40;8.86;99.70
67275;DHT22;55463;52.324;5.122;2024-01-30T13:12:05;8.86;99.58
67275;DHT22;55463;52.324;5.122;2024-01-30T13:14:31;8.84;99.89
67275;DHT22;55463;52.324;5.122;2024-01-30T13:16:56;8.83;99.96
67275;DHT22;55463;52.324;5.122;2024-01-30T13:19:22;8.80;99.99
67275;DHT22;55463;52.324;5.122;2024-01-30T13:21:47;8.79;99.99
67275;DHT22;55463;52.324;5.122;2024-01-30T13:24:13;8.75;99.99
67275;DHT22;55463;52.324;5.122;2024-01-30T13:26:38;8.70;99.99
67275;DHT22;55463;52.324;5.122;2024-01-30T13:29:04;8.69;99.99
67275;DHT22;55463;52.324;5.122;2024-01-30T13:31:30;8.67;99.99
67275;DHT22;55463;52.324;5.122;2024-01-30T13:33:55;8.67;99.99
67275;DHT22;55463;52.324;5.122;2024-01-30T13:36:21;8.65;99.99
67275;DHT22;55463;52.324;5.122;2024-01-30T13:38:47;8.63;99.99
67275;DHT22;55463;52.324;5.122;2024-01-30T13:41:13;8.65;99.99
67275;DHT22;55463;52.324;5.122;2024-01-30T13:43:39;8.62;99.99
67275;DHT22;55463;52.324;5.122;2024-01-30T13:46:04;8.59;99.99
67275;DHT22;55463;52.324;5.122;2024-01-30T13:48:31;8.59;99.99
67275;DHT22;55463;52.324;5.122;2024-01-30T13:50:57;8.60;99.99
67275;DHT22;55463;52.324;5.122;2024-01-30T13:53:22;8.60;99.99
67275;DHT22;55463;52.324;5.122;2024-01-30T13:55:48;8.57;99.99
67275;DHT22;55463;52.324;5.122;2024-01-30T13:58:13;8.57;99.99
67275;DHT22;55463;52.324;5.122;2024-01-30T14:00:39;8.59;99.99
67275;DHT22;55463;52.324;5.122;2024-01-30T14:03:04;8.57;99.99
67275;DHT22;55463;52.324;5.122;2024-01-30T14:05:30;8.56;99.99
67275;DHT22;55463;52.324;5.122;2024-01-30T14:07:57;8.60;99.99
67275;DHT22;55463;52.324;5.122;2024-01-30T14:10:23;8.60;99.99
67275;DHT22;55463;52.324;5.122;2024-01-30T14:12:49;8.56;99.99
67275;DHT22;55463;52.324;5.122;2024-01-30T14:15:14;8.57;99.99
67275;DHT22;55463;52.324;5.122;2024-01-30T14:17:40;8.57;99.99
67275;DHT22;55463;52.324;5.122;2024-01-30T14:20:06;8.50;99.99
67275;DHT22;55463;52.324;5.122;2024-01-30T14:22:34;8.52;99.99
67275;DHT22;55463;52.324;5.122;2024-01-30T14:25:02;8.50;99.99
67275;DHT22;55463;52.324;5.122;2024-01-30T14:27:31;8.52;99.99
67275;DHT22;55463;52.324;5.122;2024-01-30T14:29:57;8.48;99.99
67275;DHT22;55463;52.324;5.122;2024-01-30T14:32:24;8.48;99.99
67275;DHT22;55463;52.324;5.122;2024-01-30T14:34:50;8.50;99.99
67275;DHT22;55463;52.324;5.122;2024-01-30T14:37:17;8.49;99.99
67275;DHT22;55463;52.324;5.122;2024-01-30T14:39:43;8.48;99.99
67275;DHT22;55463;52.324;5.122;2024-01-30T14:42:08;8.45;99.99
67275;DHT22;55463;52.324;5.122;2024-01-30T14:44:34;8.45;99.99
67275;DHT22;55463;52.324;5.122;2024-01-30T14:47:00;8.45;99.99
67275;DHT22;55463;52.324;5.122;2024-01-30T14:49:25;8.46;99.99
67275;DHT22;55463;52.324;5.122;2024-01-30T14:51:51;8.45;99.99
67275;DHT22;55463;52.324;5.122;2024-01-30T14:54:16;8.45;99.99
67275;DHT22;55463;52.324;5.122;2024-01-30T14:56:42;8.42;99.99
67275;DHT22;55463;52.324;5.122;2024-01-30T14:59:08;8.38;99.99
67275;DHT22;55463;52.324;5.122;2024-01-30T15:01:33;8.39;99.99
67275;DHT22;55463;52.324;5.122;2024-01-30T15:03:59;8.42;99.99
67275;DHT22;55463;52.324;5.122;2024-01-30T15:06:24;8.41;99.99
67275;DHT22;55463;52.324;5.122;2024-01-30T15:08:51;8.42;99.99
67275;DHT22;55463;52.324;5.122;2024-01-30T15:11:17;8.37;99.99
67275;DHT22;55463;52.324;5.122;2024-01-30T15:13:42;8.37;99.99
67275;DHT22;55463;52.324;5.122;2024-01-30T15:16:08;8.35;99.99
67275;DHT22;55463;52.324;5.122;2024-01-30T15:18:33;8.32;99.99
67275;DHT22;55463;52.324;5.122;2024-01-30T15:20:59;8.34;99.99
67275;DHT22;55463;52.324;5.122;2024-01-30T15:23:25;8.34;99.99
67275;DHT22;55463;52.324;5.122;2024-01-30T15:25:50;8.34;99.99
67275;DHT22;55463;52.324;5.122;2024-01-30T15:28:16;8.31;99.99
67275;DHT22;55463;52.324;5.122;2024-01-30T15:30:42;8.28;99.99
67275;DHT22;55463;52.324;5.122;2024-01-30T15:33:09;8.29;99.99
67275;DHT22;55463;52.324;5.122;2024-01-30T15:35:35;8.29;99.99
67275;DHT22;55463;52.324;5.122;2024-01-30T15:38:00;8.29;99.99